PAKT/KTN METAR and TAF weather

Enter ICAO airport designator
Station Type Date Time Source
PAKT METAR 2021/07/26 15:53 UTC NOAA

PAKT 261553Z 00000KT 10SM FEW013 OVC025 14/12 A2994 RMK AO2 SLP138 BINOVC HARBOR WIND VRB03KT T01390117


Station Type Date Time Source
PAKT Decoded METAR 2021/07/26 15:53 UTC NOAA

KETCHIKAN INTERNATIONAL AIRPORT , AK, United States (PAKT) 55-21N 131-43W 25M
Jul 26, 2021 - 11:53 AM EDT / 2021.07.26 1553 UTC
Wind: Calm:0
Visibility: 10 mile(s):0
Sky conditions: overcast
Temperature: 57.0 F (13.9 C)
Dew Point: 53.1 F (11.7 C)
Relative Humidity: 86%
Pressure (altimeter): 29.94 in. Hg (1013 hPa)
ob: PAKT 261553Z 00000KT 10SM FEW013 OVC025 14/12 A2994 RMK AO2 SLP138 BINOVC HARBOR WIND VRB03KT T01390117
cycle: 16

Station Type Date Time Source
PAKT TAF 2021/07/26 12:45 UTC NOAA

TAF PAKT 261140Z 2612/2712 33005KT P6SM BKN060 OVC100
FM261500 15006KT P6SM -SHRA SCT035 OVC060
FM261900 13008KT 6SM -SHRA BR SCT015 OVC025
FM262200 14008KT 4SM -SHRA BR BKN015 OVC025
FM270300 15005KT P6SM -SHRA SCT020 OVC040
AMD LTD TO CLD VIS AND WIND 2612/2615

Example: see airport list